Time;durP1;ratioP1;P1;durP2;ratioP2;P2;SDS_P1;SDS_P2;PMS_P1;PMS_P2;Temp;Humidity;BMP_temperature;BMP_pressure;BME280_temperature;BME280_humidity;BME280_pressure;Samples;Min_cycle;Max_cycle;Signal;HPM_P1;HPM_P2
2022/01/06 00:00:19;;;;;;;9.20;8.90;;;2.70;99.90;;;;;;5071694;28;20223;-79
2022/01/06 00:02:47;;;;;;;9.40;9.10;;;2.70;99.90;;;;;;5068961;28;20234;-81
2022/01/06 00:05:17;;;;;;;9.20;8.90;;;2.70;99.90;;;;;;5067729;28;20264;-78
2022/01/06 00:07:48;;;;;;;9.33;9.03;;;2.70;99.90;;;;;;5064868;28;20239;-79
2022/01/06 00:10:21;;;;;;;9.23;8.93;;;2.70;99.90;;;;;;5066565;28;20237;-79
2022/01/06 00:13:04;;;;;;;9.20;8.90;;;2.70;99.90;;;;;;5064532;28;20227;-79
2022/01/06 00:15:37;;;;;;;9.43;9.13;;;2.70;99.90;;;;;;5088182;22;20234;-78
2022/01/06 00:18:29;;;;;;;9.30;9.00;;;2.70;99.90;;;;;;5081996;28;20292;-79
2022/01/06 00:23:43;;;;;;;9.03;8.80;;;2.70;99.90;;;;;;5081201;28;20214;-79
2022/01/06 00:26:13;;;;;;;9.30;9.00;;;2.70;99.90;;;;;;5082024;28;20234;-80
2022/01/06 00:28:41;;;;;;;9.47;9.17;;;2.60;99.90;;;;;;5083019;28;20238;-81
2022/01/06 00:31:09;;;;;;;9.40;9.10;;;2.70;99.90;;;;;;5082582;28;20238;-80
2022/01/06 00:33:37;;;;;;;9.37;9.07;;;2.70;99.90;;;;;;5082612;28;20230;-80
2022/01/06 00:36:05;;;;;;;8.90;8.70;;;2.70;99.90;;;;;;5083156;28;20234;-80
2022/01/06 00:38:33;;;;;;;9.10;8.83;;;2.70;99.90;;;;;;5083323;28;20230;-80
2022/01/06 00:41:01;;;;;;;9.20;8.90;;;2.70;99.90;;;;;;5083670;28;20238;-80
2022/01/06 00:43:30;;;;;;;9.03;8.80;;;2.70;99.90;;;;;;5082763;28;20292;-80
2022/01/06 00:45:58;;;;;;;8.97;8.77;;;2.70;99.90;;;;;;5082201;28;20999;-80
2022/01/06 00:48:26;;;;;;;9.13;8.83;;;2.70;99.90;;;;;;5082644;28;20234;-80
2022/01/06 00:50:54;;;;;;;8.90;8.70;;;2.70;99.90;;;;;;5079033;28;20224;-79
2022/01/06 00:53:21;;;;;;;8.80;8.60;;;2.70;99.90;;;;;;5079203;28;20668;-80
2022/01/06 00:55:49;;;;;;;8.97;8.77;;;2.70;99.90;;;;;;5081402;28;20218;-81
2022/01/06 00:58:17;;;;;;;9.17;8.87;;;2.70;99.90;;;;;;5082528;28;20241;-78
2022/01/06 01:00:46;;;;;;;9.23;8.93;;;2.70;99.90;;;;;;5080767;28;20292;-79
2022/01/06 01:03:16;;;;;;;8.90;8.70;;;2.70;99.90;;;;;;5080204;28;20241;-80
2022/01/06 01:05:46;;;;;;;8.90;8.70;;;2.70;99.90;;;;;;5080326;28;20795;-79
2022/01/06 01:08:14;;;;;;;8.67;8.47;;;2.70;99.90;;;;;;5080762;28;20238;-79
2022/01/06 01:10:43;;;;;;;8.63;8.43;;;2.70;99.90;;;;;;5079750;28;20285;-79
2022/01/06 01:13:13;;;;;;;8.80;8.60;;;2.70;99.90;;;;;;5077814;28;20238;-78
2022/01/06 01:15:45;;;;;;;8.93;8.73;;;2.70;99.90;;;;;;5076287;28;20238;-79
2022/01/06 01:18:18;;;;;;;9.20;8.90;;;2.70;99.90;;;;;;5077814;28;20219;-78
2022/01/06 01:20:46;;;;;;;8.90;8.70;;;2.70;99.90;;;;;;5077181;28;20234;-79
2022/01/06 01:23:14;;;;;;;8.97;8.77;;;2.70;99.90;;;;;;5077586;28;20292;-78
2022/01/06 01:25:42;;;;;;;8.77;8.57;;;2.70;99.90;;;;;;5078203;28;20285;-78
2022/01/06 01:28:11;;;;;;;9.00;8.80;;;2.80;99.90;;;;;;5077792;28;20268;-79
2022/01/06 01:30:52;;;;;;;8.90;8.70;;;2.80;99.90;;;;;;5078177;28;20240;-78
2022/01/06 01:33:22;;;;;;;8.90;8.70;;;2.70;99.90;;;;;;5078584;28;20245;-79
2022/01/06 01:35:49;;;;;;;8.73;8.53;;;2.80;99.90;;;;;;5078509;28;20260;-78
2022/01/06 01:38:17;;;;;;;9.03;8.83;;;2.80;99.90;;;;;;5078010;28;20261;-78
2022/01/06 01:40:45;;;;;;;8.90;8.70;;;2.80;99.90;;;;;;5078161;28;20234;-79
2022/01/06 01:43:12;;;;;;;9.37;9.07;;;2.80;99.90;;;;;;5077472;28;20226;-78
2022/01/06 01:45:46;;;;;;;9.20;8.90;;;2.80;99.90;;;;;;5076892;28;20344;-78
2022/01/06 01:48:21;;;;;;;8.83;8.63;;;2.80;99.90;;;;;;5078381;28;20226;-78
2022/01/06 01:50:50;;;;;;;8.87;8.67;;;2.80;99.90;;;;;;5077187;28;20236;-79
2022/01/06 01:53:18;;;;;;;8.90;8.70;;;2.90;99.90;;;;;;5077263;28;20226;-78
2022/01/06 01:55:46;;;;;;;8.60;8.40;;;2.90;99.90;;;;;;5079207;28;20728;-79
2022/01/06 01:58:14;;;;;;;9.23;8.93;;;2.90;99.90;;;;;;5079994;28;20230;-78
2022/01/06 02:00:42;;;;;;;9.00;8.80;;;2.90;99.90;;;;;;5079664;28;20241;-78
2022/01/06 02:03:10;;;;;;;8.90;8.70;;;2.90;99.90;;;;;;5076053;28;20226;-79
2022/01/06 02:05:38;;;;;;;8.67;8.47;;;2.90;99.90;;;;;;5076711;28;20234;-79
2022/01/06 02:08:07;;;;;;;8.53;8.33;;;2.90;99.90;;;;;;5076997;28;20278;-79
2022/01/06 02:10:35;;;;;;;8.70;8.50;;;2.80;99.90;;;;;;5077525;28;20655;-78
2022/01/06 02:13:04;;;;;;;8.70;8.50;;;2.90;99.90;;;;;;5077034;28;20225;-78
2022/01/06 02:15:31;;;;;;;8.70;8.50;;;2.90;99.90;;;;;;5076842;28;20230;-79
2022/01/06 02:17:59;;;;;;;8.70;8.50;;;2.90;99.90;;;;;;5077152;28;20283;-79
2022/01/06 02:20:29;;;;;;;8.83;8.63;;;2.90;99.90;;;;;;5077877;28;20234;-78
2022/01/06 02:22:57;;;;;;;8.97;8.77;;;2.90;99.90;;;;;;5077591;28;20284;-79
2022/01/06 02:25:31;;;;;;;8.73;8.53;;;2.90;99.90;;;;;;5077077;28;20220;-79
2022/01/06 02:28:02;;;;;;;8.80;8.60;;;2.90;99.90;;;;;;5078304;28;20678;-78
2022/01/06 02:30:33;;;;;;;8.53;8.33;;;2.80;99.90;;;;;;5079119;28;20233;-79
2022/01/06 02:33:01;;;;;;;8.80;8.60;;;2.80;99.90;;;;;;5078217;28;20321;-79
2022/01/06 02:35:32;;;;;;;8.50;8.30;;;2.70;99.90;;;;;;5077776;28;20245;-78
2022/01/06 02:38:00;;;;;;;8.67;8.47;;;2.70;99.90;;;;;;5078515;28;20234;-79
2022/01/06 02:40:28;;;;;;;8.70;8.50;;;2.60;99.90;;;;;;5078226;28;20234;-79
2022/01/06 02:42:59;;;;;;;8.67;8.47;;;2.60;99.90;;;;;;5077754;28;20296;-79
2022/01/06 02:45:30;;;;;;;8.73;8.53;;;2.50;99.90;;;;;;5077628;28;20288;-79
2022/01/06 02:48:00;;;;;;;8.67;8.47;;;2.50;99.90;;;;;;5076170;28;20230;-79
2022/01/06 02:50:29;;;;;;;8.60;8.40;;;2.50;99.90;;;;;;5076925;28;20272;-79
2022/01/06 02:52:57;;;;;;;8.70;8.50;;;2.50;99.90;;;;;;5076591;28;20234;-79
2022/01/06 02:55:25;;;;;;;9.00;8.70;;;2.50;99.90;;;;;;5076361;28;20291;-79
2022/01/06 02:57:53;;;;;;;8.70;8.50;;;2.50;99.90;;;;;;5076882;28;20284;-79
2022/01/06 03:00:20;;;;;;;8.80;8.57;;;2.50;99.90;;;;;;5077227;28;20686;-78
2022/01/06 03:02:48;;;;;;;8.93;8.63;;;2.50;99.90;;;;;;5076995;28;20304;-79
2022/01/06 03:05:18;;;;;;;8.57;8.37;;;2.50;99.90;;;;;;5077350;28;20232;-79
2022/01/06 03:07:48;;;;;;;9.20;8.90;;;2.40;99.90;;;;;;5076688;28;20230;-79
2022/01/06 03:10:17;;;;;;;8.83;8.60;;;2.40;99.90;;;;;;5077075;28;20296;-78
2022/01/06 03:12:46;;;;;;;8.60;8.40;;;2.30;99.90;;;;;;5076703;28;20230;-79
2022/01/06 03:15:16;;;;;;;8.93;8.63;;;2.30;99.90;;;;;;5078709;28;20254;-78
2022/01/06 03:17:47;;;;;;;8.67;8.47;;;2.30;99.90;;;;;;5080221;28;20300;-78
2022/01/06 03:20:17;;;;;;;8.60;8.40;;;2.30;99.90;;;;;;5080729;28;20226;-79
2022/01/06 03:22:47;;;;;;;8.90;8.70;;;2.30;99.90;;;;;;5079996;28;20238;-80
2022/01/06 03:25:15;;;;;;;8.97;8.67;;;2.30;99.90;;;;;;5080040;28;20219;-79
2022/01/06 03:27:44;;;;;;;8.63;8.43;;;2.30;99.90;;;;;;5080289;28;20267;-79
2022/01/06 03:30:16;;;;;;;8.57;8.37;;;2.30;99.90;;;;;;5080037;28;21037;-79
2022/01/06 03:32:44;;;;;;;8.77;8.57;;;2.40;99.90;;;;;;5079896;28;20296;-79
2022/01/06 03:35:15;;;;;;;8.63;8.43;;;2.40;99.90;;;;;;5080457;28;20253;-80
2022/01/06 03:37:43;;;;;;;8.67;8.47;;;2.40;99.90;;;;;;5080494;28;20257;-78
2022/01/06 03:40:12;;;;;;;9.23;8.93;;;2.40;99.90;;;;;;5080118;28;20230;-77
2022/01/06 03:42:41;;;;;;;8.73;8.53;;;2.40;99.90;;;;;;5080214;28;20223;-79
2022/01/06 03:45:12;;;;;;;8.73;8.53;;;2.40;99.90;;;;;;5079732;28;20223;-79
2022/01/06 03:47:40;;;;;;;8.80;8.60;;;2.40;99.90;;;;;;5080187;28;20347;-79
2022/01/06 03:50:10;;;;;;;8.77;8.57;;;2.40;99.90;;;;;;5082886;28;20226;-79
2022/01/06 03:52:37;;;;;;;8.80;8.60;;;2.40;99.90;;;;;;5085097;28;20298;-78
2022/01/06 03:55:08;;;;;;;9.00;8.70;;;2.50;99.90;;;;;;5085989;28;20222;-79
2022/01/06 03:57:38;;;;;;;8.70;8.50;;;2.50;99.90;;;;;;5081413;28;20300;-78
2022/01/06 04:00:09;;;;;;;9.10;8.80;;;2.50;99.90;;;;;;5080828;28;20238;-80
2022/01/06 04:02:37;;;;;;;8.83;8.60;;;2.50;99.90;;;;;;5076786;28;20234;-79
2022/01/06 04:05:06;;;;;;;8.73;8.53;;;2.50;99.90;;;;;;5076354;28;20296;-79
2022/01/06 04:07:35;;;;;;;8.93;8.67;;;2.50;99.90;;;;;;5077768;28;20234;-78
2022/01/06 04:10:05;;;;;;;8.80;8.57;;;2.40;99.90;;;;;;5077499;28;20230;-78
2022/01/06 04:12:34;;;;;;;9.00;8.70;;;2.40;99.90;;;;;;5076997;28;20230;-78
2022/01/06 04:15:11;;;;;;;8.83;8.57;;;2.40;99.90;;;;;;5077099;28;20233;-79
2022/01/06 04:17:39;;;;;;;9.03;8.73;;;2.40;99.90;;;;;;5078189;28;20260;-78
2022/01/06 04:20:09;;;;;;;9.10;8.80;;;2.30;99.90;;;;;;5077837;28;20253;-79
2022/01/06 04:22:37;;;;;;;9.10;8.80;;;2.30;99.90;;;;;;5078251;28;20222;-78
2022/01/06 04:25:06;;;;;;;8.70;8.50;;;2.30;99.90;;;;;;5080115;28;20222;-79
2022/01/06 04:27:35;;;;;;;8.90;8.60;;;2.30;99.90;;;;;;5081019;28;20246;-79
2022/01/06 04:30:05;;;;;;;8.93;8.63;;;2.30;99.90;;;;;;5078787;28;20234;-78
2022/01/06 04:32:33;;;;;;;8.80;8.60;;;2.30;99.90;;;;;;5078514;28;20230;-78
2022/01/06 04:35:01;;;;;;;8.70;8.50;;;2.30;99.90;;;;;;5078183;28;20238;-79
2022/01/06 04:37:29;;;;;;;8.73;8.53;;;2.40;99.90;;;;;;5078156;28;20238;-78
2022/01/06 04:39:56;;;;;;;9.10;8.80;;;2.30;99.90;;;;;;5076828;28;20238;-79
2022/01/06 04:42:24;;;;;;;8.80;8.57;;;2.30;99.90;;;;;;5076001;28;20288;-79
2022/01/06 04:44:52;;;;;;;9.00;8.70;;;2.30;99.90;;;;;;5077069;28;20233;-79
2022/01/06 04:47:21;;;;;;;8.87;8.60;;;2.30;99.90;;;;;;5076562;28;20238;-79
2022/01/06 04:49:49;;;;;;;9.00;8.70;;;2.20;99.90;;;;;;5077488;28;20284;-78
2022/01/06 04:52:16;;;;;;;8.70;8.50;;;2.20;99.90;;;;;;5078033;28;20256;-79
2022/01/06 04:54:44;;;;;;;8.47;8.27;;;2.20;99.90;;;;;;5077501;28;20277;-79
2022/01/06 04:57:12;;;;;;;8.70;8.50;;;2.10;99.90;;;;;;5076955;28;20234;-78
2022/01/06 04:59:40;;;;;;;8.70;8.50;;;2.00;99.90;;;;;;5077278;28;20284;-79
2022/01/06 05:02:07;;;;;;;8.87;8.57;;;2.00;99.90;;;;;;5077029;28;20226;-79
2022/01/06 05:04:37;;;;;;;8.83;8.53;;;1.90;99.90;;;;;;5078012;28;20240;-78
2022/01/06 05:07:05;;;;;;;8.80;8.57;;;1.80;99.90;;;;;;5077576;28;20280;-78
2022/01/06 05:09:32;;;;;;;8.87;8.57;;;1.80;99.90;;;;;;5078970;28;20234;-79
2022/01/06 05:12:00;;;;;;;8.77;8.57;;;1.80;99.90;;;;;;5079900;28;20238;-79
2022/01/06 05:14:28;;;;;;;9.00;8.70;;;1.80;99.90;;;;;;5098573;28;20317;-79
2022/01/06 05:16:56;;;;;;;8.97;8.67;;;1.80;99.90;;;;;;5100334;28;20233;-78
2022/01/06 05:19:24;;;;;;;9.10;8.80;;;1.80;99.90;;;;;;5100984;28;20220;-78
2022/01/06 05:21:54;;;;;;;9.20;8.90;;;1.70;99.90;;;;;;5101134;28;20249;-79
2022/01/06 05:24:23;;;;;;;9.30;9.00;;;1.80;99.90;;;;;;5101158;28;20202;-79
2022/01/06 05:26:54;;;;;;;9.30;9.00;;;1.70;99.90;;;;;;5101029;28;20240;-79
2022/01/06 05:29:21;;;;;;;9.10;8.80;;;1.80;99.90;;;;;;5101137;28;20206;-79
2022/01/06 05:31:49;;;;;;;9.20;8.90;;;1.70;99.90;;;;;;5100900;28;20214;-79
2022/01/06 05:34:17;;;;;;;9.40;9.10;;;1.70;99.90;;;;;;5100457;28;20221;-79
2022/01/06 05:36:45;;;;;;;9.33;9.03;;;1.70;99.90;;;;;;5099816;28;20234;-79
2022/01/06 05:39:14;;;;;;;9.40;9.10;;;1.70;99.90;;;;;;5099845;28;20236;-79
2022/01/06 05:41:41;;;;;;;9.60;9.30;;;1.70;99.90;;;;;;5100118;28;20229;-79
2022/01/06 05:44:09;;;;;;;9.40;9.10;;;1.70;99.90;;;;;;5098042;28;20226;-78
2022/01/06 05:46:37;;;;;;;9.30;9.00;;;1.70;99.90;;;;;;5096731;28;20222;-78
2022/01/06 05:49:05;;;;;;;9.20;8.90;;;1.60;99.90;;;;;;5095995;28;20249;-79
2022/01/06 05:51:33;;;;;;;9.27;8.97;;;1.60;99.90;;;;;;5096852;28;20211;-79
2022/01/06 05:54:01;;;;;;;9.50;9.20;;;1.60;99.90;;;;;;5094977;28;20241;-79
2022/01/06 05:56:30;;;;;;;9.50;9.20;;;1.60;99.90;;;;;;5083154;28;20238;-78
2022/01/06 05:58:57;;;;;;;9.63;9.33;;;1.50;99.90;;;;;;5076498;28;20264;-78
2022/01/06 06:01:25;;;;;;;9.40;9.10;;;1.50;99.90;;;;;;5077182;28;20940;-79
2022/01/06 06:03:54;;;;;;;9.40;9.10;;;1.50;99.90;;;;;;5077153;28;20272;-79
2022/01/06 06:06:22;;;;;;;9.30;9.00;;;1.60;99.90;;;;;;5077102;28;20238;-78
2022/01/06 06:08:50;;;;;;;9.43;9.13;;;1.60;99.90;;;;;;5076783;28;20232;-79
2022/01/06 06:11:18;;;;;;;9.50;9.20;;;1.60;99.90;;;;;;5077169;28;21088;-81
2022/01/06 06:13:47;;;;;;;9.47;9.17;;;1.60;99.90;;;;;;5077954;28;20242;-79
2022/01/06 06:16:14;;;;;;;9.40;9.10;;;1.60;99.90;;;;;;5075449;28;20238;-78
2022/01/06 06:18:42;;;;;;;9.47;9.17;;;1.60;99.90;;;;;;5076979;28;20222;-78
2022/01/06 06:21:10;;;;;;;9.57;9.27;;;1.70;99.90;;;;;;5076161;28;20238;-79
2022/01/06 06:23:38;;;;;;;9.57;9.27;;;1.70;99.90;;;;;;5075821;28;20276;-79
2022/01/06 06:26:06;;;;;;;9.30;9.00;;;1.70;99.90;;;;;;5105830;22;20268;-79
2022/01/06 06:28:33;;;;;;;9.37;9.07;;;1.70;99.90;;;;;;5062651;28;20258;-79
2022/01/06 06:31:02;;;;;;;9.47;9.17;;;1.70;99.90;;;;;;5061590;28;20259;-78
2022/01/06 06:33:30;;;;;;;9.50;9.20;;;1.80;99.90;;;;;;5061194;28;20289;-79
2022/01/06 06:35:59;;;;;;;9.70;9.40;;;1.80;99.90;;;;;;5074102;28;20238;-79
2022/01/06 06:38:29;;;;;;;9.50;9.20;;;1.80;99.90;;;;;;5081648;28;20327;-79
2022/01/06 06:40:58;;;;;;;9.20;8.90;;;1.80;99.90;;;;;;5082285;28;20798;-79
2022/01/06 06:43:27;;;;;;;9.23;8.93;;;1.80;99.90;;;;;;5082962;28;20218;-79
2022/01/06 06:45:57;;;;;;;9.60;9.30;;;1.80;99.90;;;;;;5091207;28;20238;-77
2022/01/06 06:48:26;;;;;;;9.63;9.33;;;1.80;99.90;;;;;;5094693;28;20226;-77
2022/01/06 06:50:55;;;;;;;9.30;9.00;;;1.80;99.90;;;;;;5096019;28;20222;-77
2022/01/06 06:53:23;;;;;;;9.70;9.40;;;1.90;99.90;;;;;;5092231;28;20217;-78
2022/01/06 06:55:55;;;;;;;9.60;9.30;;;1.90;99.90;;;;;;5087288;28;20233;-78
2022/01/06 06:58:23;;;;;;;9.37;9.07;;;1.90;99.90;;;;;;5083205;28;20256;-78
2022/01/06 07:00:51;;;;;;;9.90;9.60;;;1.90;99.90;;;;;;5084245;28;20288;-79
2022/01/06 07:03:23;;;;;;;9.83;9.53;;;1.90;99.90;;;;;;5099301;28;20214;-78
2022/01/06 07:05:53;;;;;;;9.73;9.43;;;1.90;99.90;;;;;;5101252;28;20229;-78
2022/01/06 07:08:23;;;;;;;9.73;9.43;;;1.90;99.90;;;;;;5092100;28;20230;-78
2022/01/06 07:10:51;;;;;;;9.70;9.40;;;2.00;99.90;;;;;;5085795;28;20243;-79
2022/01/06 07:13:19;;;;;;;9.83;9.53;;;2.00;99.90;;;;;;5087271;28;20218;-78
2022/01/06 07:15:50;;;;;;;9.67;9.37;;;2.00;99.90;;;;;;5085745;28;20238;-78
2022/01/06 07:18:18;;;;;;;9.43;9.13;;;2.00;99.90;;;;;;5084506;28;20234;-78
2022/01/06 07:20:52;;;;;;;9.67;9.37;;;2.00;99.90;;;;;;5083583;28;20304;-78
2022/01/06 07:23:21;;;;;;;9.70;9.40;;;2.00;99.90;;;;;;5083820;28;20226;-77
2022/01/06 07:25:49;;;;;;;10.00;9.70;;;2.10;99.90;;;;;;5083146;28;20234;-79
2022/01/06 07:28:19;;;;;;;9.80;9.50;;;2.10;99.90;;;;;;5083802;28;20226;-79
2022/01/06 07:30:49;;;;;;;10.20;9.90;;;2.10;99.90;;;;;;5083526;28;20234;-79
2022/01/06 07:33:18;;;;;;;10.17;9.87;;;2.10;99.90;;;;;;5082841;28;20226;-79
2022/01/06 07:35:48;;;;;;;10.17;9.87;;;2.10;99.90;;;;;;5082599;28;20293;-79
2022/01/06 07:38:17;;;;;;;10.00;9.70;;;2.10;99.90;;;;;;5083245;28;20312;-79
2022/01/06 07:40:51;;;;;;;9.90;9.60;;;2.10;99.90;;;;;;5083297;28;20215;-79
2022/01/06 07:43:18;;;;;;;9.87;9.57;;;2.10;99.90;;;;;;5082704;28;20211;-80
2022/01/06 07:45:46;;;;;;;9.93;9.63;;;2.10;99.90;;;;;;5082803;28;20296;-79
2022/01/06 07:48:18;;;;;;;9.90;9.60;;;2.10;99.90;;;;;;5082465;28;20238;-78
2022/01/06 07:50:47;;;;;;;9.83;9.53;;;2.20;99.90;;;;;;5086195;28;20265;-79
2022/01/06 07:53:15;;;;;;;9.70;9.40;;;2.20;99.90;;;;;;5087231;28;20226;-79
2022/01/06 07:55:43;;;;;;;9.83;9.53;;;2.20;99.90;;;;;;5083358;28;20234;-79
2022/01/06 07:58:13;;;;;;;9.73;9.43;;;2.20;99.90;;;;;;5083384;28;20234;-78
2022/01/06 08:00:42;;;;;;;9.37;9.07;;;2.20;99.90;;;;;;5081344;28;20222;-79
2022/01/06 08:03:10;;;;;;;9.60;9.30;;;2.20;99.90;;;;;;5089495;28;20976;-79
2022/01/06 08:05:39;;;;;;;9.53;9.23;;;2.30;99.90;;;;;;5082841;28;20238;-79
2022/01/06 08:08:09;;;;;;;9.63;9.33;;;2.30;99.90;;;;;;5082557;28;20321;-79
2022/01/06 08:10:40;;;;;;;9.80;9.50;;;2.30;99.90;;;;;;5082100;28;20237;-79
2022/01/06 08:13:10;;;;;;;10.10;9.80;;;2.30;99.90;;;;;;5082660;28;20409;-83
2022/01/06 08:15:42;;;;;;;9.60;9.30;;;2.40;99.90;;;;;;5083603;28;20245;-83
2022/01/06 08:18:10;;;;;;;9.57;9.27;;;2.50;99.90;;;;;;5085127;28;20234;-82
2022/01/06 08:20:38;;;;;;;9.70;9.40;;;2.50;99.90;;;;;;5084401;28;20234;-82
2022/01/06 08:23:08;;;;;;;9.57;9.27;;;2.60;99.90;;;;;;5084674;28;20269;-82
2022/01/06 08:25:37;;;;;;;9.60;9.30;;;2.60;99.90;;;;;;5083475;28;20226;-81
2022/01/06 08:28:07;;;;;;;9.67;9.37;;;2.60;99.90;;;;;;5084313;28;20256;-81
2022/01/06 08:30:35;;;;;;;9.67;9.37;;;2.60;99.90;;;;;;5084401;28;20230;-81
2022/01/06 08:33:15;;;;;;;9.77;9.47;;;2.60;99.90;;;;;;5084216;28;20226;-83
2022/01/06 08:35:44;;;;;;;9.90;9.60;;;2.60;99.90;;;;;;5083681;28;20264;-82
2022/01/06 08:38:14;;;;;;;9.40;9.10;;;2.60;99.90;;;;;;5084485;28;20234;-82
2022/01/06 08:40:42;;;;;;;9.40;9.10;;;2.50;99.90;;;;;;5083748;28;20234;-82
2022/01/06 08:43:12;;;;;;;9.43;9.13;;;2.60;99.90;;;;;;5084368;28;20230;-85
2022/01/06 08:45:41;;;;;;;9.83;9.53;;;2.50;99.90;;;;;;5085002;28;20234;-83
2022/01/06 08:48:20;;;;;;;9.40;9.10;;;2.60;99.90;;;;;;5085548;28;20237;-83
2022/01/06 08:50:48;;;;;;;9.77;9.47;;;2.60;99.90;;;;;;5084535;28;20245;-83
2022/01/06 08:53:18;;;;;;;9.90;9.60;;;2.60;99.90;;;;;;5085263;28;20238;-82
2022/01/06 08:55:47;;;;;;;9.70;9.40;;;2.60;99.90;;;;;;5085668;28;20245;-83
2022/01/06 08:58:18;;;;;;;9.73;9.43;;;2.60;99.90;;;;;;5086152;28;20237;-82
2022/01/06 09:00:46;;;;;;;9.70;9.40;;;2.60;99.90;;;;;;5086583;28;20288;-83
2022/01/06 09:03:25;;;;;;;9.80;9.50;;;2.70;99.90;;;;;;5088391;28;20218;-82
2022/01/06 09:05:54;;;;;;;9.80;9.50;;;2.70;99.90;;;;;;5090918;28;20291;-83
2022/01/06 09:08:23;;;;;;;9.73;9.43;;;2.60;99.90;;;;;;5089733;28;20226;-83
2022/01/06 09:10:54;;;;;;;9.70;9.40;;;2.70;99.90;;;;;;5091140;28;20245;-83
2022/01/06 09:13:23;;;;;;;9.63;9.33;;;2.70;99.90;;;;;;5087142;28;20206;-84
2022/01/06 09:15:51;;;;;;;9.50;9.20;;;2.80;99.90;;;;;;5086538;28;20237;-83
2022/01/06 09:18:31;;;;;;;9.50;9.20;;;2.70;99.90;;;;;;5087608;28;20237;-83
2022/01/06 09:20:59;;;;;;;9.57;9.27;;;2.70;99.90;;;;;;5089665;28;20252;-83
2022/01/06 09:23:28;;;;;;;9.33;9.03;;;2.70;99.90;;;;;;5090153;28;20234;-83
2022/01/06 09:25:59;;;;;;;9.40;9.10;;;2.70;99.90;;;;;;5088779;28;20234;-83
2022/01/06 09:28:30;;;;;;;9.50;9.20;;;2.70;99.90;;;;;;5086404;28;20229;-83
2022/01/06 09:30:59;;;;;;;9.63;9.33;;;2.70;99.90;;;;;;5084988;28;20230;-81
2022/01/06 09:33:38;;;;;;;9.20;8.90;;;3.00;99.90;;;;;;5084581;28;20264;-84
2022/01/06 09:36:06;;;;;;;9.27;8.97;;;3.10;99.90;;;;;;5086602;28;20241;-83
2022/01/06 09:38:36;;;;;;;9.13;8.83;;;3.00;99.90;;;;;;5086965;28;20253;-83
2022/01/06 09:41:06;;;;;;;9.70;9.40;;;3.00;99.90;;;;;;5097931;28;20274;-82
2022/01/06 09:43:35;;;;;;;9.63;9.33;;;2.90;99.90;;;;;;5089425;28;20222;-83
2022/01/06 09:46:06;;;;;;;9.73;9.43;;;2.90;99.90;;;;;;5087934;28;20282;-83
2022/01/06 09:48:42;;;;;;;9.80;9.50;;;2.90;99.90;;;;;;5087974;28;20245;-83
2022/01/06 09:51:12;;;;;;;9.70;9.40;;;3.00;99.90;;;;;;5086412;28;20238;-83
2022/01/06 09:53:42;;;;;;;9.67;9.37;;;3.00;99.90;;;;;;5086238;28;20218;-84
2022/01/06 09:56:11;;;;;;;9.33;9.03;;;3.00;99.90;;;;;;5085165;28;20241;-81
2022/01/06 09:58:40;;;;;;;9.33;9.03;;;3.00;99.90;;;;;;5086126;28;20225;-82
2022/01/06 10:01:10;;;;;;;9.27;8.97;;;3.10;99.90;;;;;;5086750;28;20248;-82
2022/01/06 10:03:48;;;;;;;9.40;9.10;;;3.10;99.90;;;;;;5087470;28;20222;-83
2022/01/06 10:06:18;;;;;;;9.47;9.17;;;3.20;99.90;;;;;;5088240;28;20238;-84
2022/01/06 10:11:36;;;;;;;9.07;8.80;;;3.30;99.90;;;;;;5087603;28;20224;-83
2022/01/06 10:14:09;;;;;;;9.47;9.17;;;3.30;99.90;;;;;;5087926;28;20226;-84
2022/01/06 10:16:44;;;;;;;9.70;9.40;;;3.30;99.90;;;;;;5088386;28;20234;-84
2022/01/06 10:19:20;;;;;;;9.30;9.00;;;3.30;99.90;;;;;;5089463;28;20252;-84
2022/01/06 10:21:56;;;;;;;9.60;9.30;;;3.20;99.90;;;;;;5089744;28;20241;-84
2022/01/06 10:24:27;;;;;;;9.53;9.23;;;3.10;99.90;;;;;;5093169;28;20218;-82
2022/01/06 10:26:58;;;;;;;9.27;8.97;;;3.20;99.90;;;;;;5092873;28;20245;-83
2022/01/06 10:29:29;;;;;;;9.13;8.87;;;3.40;99.90;;;;;;5094536;28;20213;-85
2022/01/06 10:32:04;;;;;;;8.90;8.70;;;3.50;99.90;;;;;;5094343;28;20255;-85
2022/01/06 10:34:44;;;;;;;8.80;8.60;;;3.70;99.90;;;;;;5095713;28;20230;-83
2022/01/06 10:37:21;;;;;;;8.70;8.50;;;3.90;99.90;;;;;;5094716;28;20226;-83
2022/01/06 10:39:52;;;;;;;8.83;8.63;;;3.90;99.90;;;;;;5095228;28;20241;-82
2022/01/06 10:45:10;;;;;;;8.63;8.43;;;4.30;99.90;;;;;;5092460;28;20230;-82
2022/01/06 10:47:46;;;;;;;8.37;8.17;;;4.40;99.90;;;;;;5093397;28;20214;-83
2022/01/06 10:50:24;;;;;;;8.40;8.20;;;4.30;99.90;;;;;;5096666;28;20221;-83
2022/01/06 10:53:02;;;;;;;8.57;8.37;;;4.20;99.90;;;;;;5088024;28;20230;-83
2022/01/06 10:55:32;;;;;;;8.43;8.23;;;4.10;99.90;;;;;;5092666;28;20214;-82
2022/01/06 10:58:04;;;;;;;8.60;8.40;;;3.80;99.90;;;;;;5101066;28;20230;-83
2022/01/06 11:00:40;;;;;;;8.90;8.70;;;3.70;99.90;;;;;;5102204;28;20228;-83
2022/01/06 11:03:11;;;;;;;8.80;8.60;;;3.80;99.90;;;;;;5100494;28;20213;-82
2022/01/06 11:05:50;;;;;;;8.80;8.60;;;3.70;99.90;;;;;;5094936;28;20271;-83
2022/01/06 11:08:20;;;;;;;8.77;8.57;;;3.70;99.90;;;;;;5090584;28;20239;-82
2022/01/06 11:11:03;;;;;;;8.73;8.53;;;3.60;99.90;;;;;;5099217;28;20235;-83
2022/01/06 11:13:32;;;;;;;9.07;8.77;;;3.50;99.90;;;;;;5111688;28;20235;-83
2022/01/06 11:16:01;;;;;;;8.60;8.40;;;3.70;99.90;;;;;;5109297;28;20291;-81
2022/01/06 11:18:32;;;;;;;8.80;8.60;;;3.80;99.90;;;;;;5107282;28;20233;-86
2022/01/06 11:21:09;;;;;;;8.90;8.70;;;3.90;99.90;;;;;;5107462;28;20229;-83
2022/01/06 11:23:38;;;;;;;8.60;8.40;;;4.00;99.90;;;;;;5108507;28;20229;-83
2022/01/06 11:26:11;;;;;;;8.57;8.37;;;4.00;99.90;;;;;;5107126;28;20296;-84
2022/01/06 11:28:40;;;;;;;8.80;8.60;;;4.00;99.90;;;;;;5106557;28;20232;-83
2022/01/06 11:31:18;;;;;;;8.40;8.20;;;4.20;99.90;;;;;;5108193;28;20237;-85
2022/01/06 11:33:49;;;;;;;8.30;8.10;;;4.50;99.90;;;;;;5108711;28;20255;-83
2022/01/06 11:36:25;;;;;;;8.70;8.50;;;4.70;99.90;;;;;;5107478;28;20229;-83
2022/01/06 11:38:55;;;;;;;8.80;8.60;;;5.00;99.90;;;;;;5108516;28;20244;-83
2022/01/06 11:41:33;;;;;;;8.70;8.50;;;5.20;99.90;;;;;;5109025;28;20234;-84
2022/01/06 11:44:02;;;;;;;8.70;8.50;;;5.50;99.90;;;;;;5108682;28;20217;-84
2022/01/06 11:46:42;;;;;;;9.00;8.80;;;5.50;99.90;;;;;;5108105;28;20294;-84
2022/01/06 11:49:12;;;;;;;8.73;8.53;;;5.30;99.90;;;;;;5108632;28;20233;-83
2022/01/06 11:54:27;;;;;;;8.60;8.40;;;5.20;99.90;;;;;;5106179;28;20336;-83
2022/01/06 11:56:56;;;;;;;8.90;8.70;;;5.20;99.90;;;;;;5106802;28;20398;-82
2022/01/06 11:59:36;;;;;;;8.60;8.40;;;5.00;99.90;;;;;;5106944;28;20231;-83
2022/01/06 12:02:05;;;;;;;8.70;8.50;;;4.80;99.90;;;;;;5106706;28;20272;-84
2022/01/06 12:04:33;;;;;;;8.90;8.70;;;4.60;99.90;;;;;;5107673;28;20229;-84
2022/01/06 12:07:12;;;;;;;8.47;8.27;;;4.40;99.90;;;;;;5115675;28;20297;-81
2022/01/06 12:09:42;;;;;;;8.87;8.67;;;4.40;99.90;;;;;;5114903;28;20229;-85
2022/01/06 12:12:11;;;;;;;8.80;8.60;;;4.40;99.90;;;;;;5111264;28;20233;-82
2022/01/06 12:14:40;;;;;;;8.67;8.47;;;4.40;99.90;;;;;;5109518;28;20234;-83
2022/01/06 12:17:23;;;;;;;8.77;8.57;;;4.40;99.90;;;;;;5112823;28;20328;-84
2022/01/06 12:19:58;;;;;;;8.80;8.60;;;4.10;99.90;;;;;;5113556;28;20264;-84
2022/01/06 12:22:28;;;;;;;8.73;8.53;;;4.00;99.90;;;;;;5117582;28;20308;-84
2022/01/06 12:25:07;;;;;;;8.80;8.60;;;3.90;99.90;;;;;;5113541;28;20244;-84
2022/01/06 12:27:48;;;;;;;8.90;8.70;;;3.90;99.90;;;;;;5112458;22;20226;-82
2022/01/06 12:30:17;;;;;;;8.83;8.63;;;4.00;99.90;;;;;;5089542;28;20229;-80
2022/01/06 12:32:57;;;;;;;9.10;8.80;;;4.00;99.90;;;;;;5065109;28;20226;-81
2022/01/06 12:35:41;;;;;;;8.63;8.43;;;4.10;99.90;;;;;;5062282;28;20227;-80
2022/01/06 12:38:12;;;;;;;8.50;8.30;;;4.20;99.90;;;;;;5095271;28;20217;-81
2022/01/06 12:40:43;;;;;;;8.50;8.30;;;4.70;99.90;;;;;;5081520;28;20222;-81
2022/01/06 12:43:19;;;;;;;8.90;8.70;;;5.10;99.90;;;;;;5081702;28;20300;-82
2022/01/06 12:46:00;;;;;;;8.97;8.77;;;5.50;99.90;;;;;;5083220;28;20222;-82
2022/01/06 12:48:32;;;;;;;8.73;8.53;;;6.00;99.90;;;;;;5084422;28;20218;-84
2022/01/06 12:51:00;;;;;;;9.40;9.10;;;6.50;99.90;;;;;;5082682;28;20234;-83
2022/01/06 12:53:32;;;;;;;9.30;9.00;;;7.00;99.90;;;;;;5082741;28;20229;-83
2022/01/06 12:56:01;;;;;;;9.30;9.00;;;7.40;99.90;;;;;;5082513;28;20237;-83
2022/01/06 12:58:32;;;;;;;9.50;9.20;;;7.40;99.90;;;;;;5083514;28;20234;-83
2022/01/06 13:01:06;;;;;;;9.37;9.07;;;7.40;99.90;;;;;;5082331;28;20705;-83
2022/01/06 13:03:36;;;;;;;9.30;9.00;;;7.20;99.90;;;;;;5099503;28;20249;-83
2022/01/06 13:06:08;;;;;;;9.23;8.93;;;7.10;99.90;;;;;;5082244;28;20291;-84
2022/01/06 13:08:48;;;;;;;9.27;8.97;;;7.00;99.90;;;;;;5080728;28;20230;-82
2022/01/06 13:11:17;;;;;;;9.17;8.87;;;7.10;99.90;;;;;;5081299;28;20270;-83
2022/01/06 13:13:53;;;;;;;9.00;8.70;;;7.20;99.90;;;;;;5080937;28;20233;-83
2022/01/06 13:16:23;;;;;;;9.13;8.83;;;7.30;99.90;;;;;;5081770;28;20230;-82
2022/01/06 13:19:01;;;;;;;9.30;9.00;;;7.40;99.90;;;;;;5080915;28;20234;-82
2022/01/06 13:21:33;;;;;;;9.27;8.97;;;7.40;99.90;;;;;;5064842;28;20240;-83
2022/01/06 13:24:16;;;;;;;9.27;8.97;;;7.20;99.90;;;;;;5083001;28;20229;-84